createdAt,value
2023-05-16T00:00:46.864Z,89.08
2023-05-16T00:01:46.894Z,88.98
2023-05-16T00:02:46.905Z,89.08
2023-05-16T00:03:46.898Z,89.39
2023-05-16T00:04:46.807Z,89.28
2023-05-16T00:05:46.809Z,89.49
2023-05-16T00:06:46.818Z,89.69
2023-05-16T00:07:46.809Z,90.00
2023-05-16T00:08:46.776Z,90.00
2023-05-16T00:09:46.766Z,90.20
2023-05-16T00:10:46.793Z,90.31
2023-05-16T00:11:46.790Z,90.41
2023-05-16T00:12:46.728Z,90.41
2023-05-16T00:13:46.720Z,90.45
2023-05-16T00:14:46.716Z,90.45
2023-05-16T00:15:46.717Z,90.35
2023-05-16T00:16:46.715Z,89.94
2023-05-16T00:17:46.785Z,89.73
2023-05-16T00:18:46.714Z,89.73
2023-05-16T00:19:46.674Z,89.94
2023-05-16T00:20:46.655Z,89.84
2023-05-16T00:21:46.651Z,90.25
2023-05-16T00:22:46.633Z,90.04
2023-05-16T00:23:46.617Z,90.25
2023-05-16T00:24:46.614Z,90.35
2023-05-16T00:25:46.649Z,90.35
2023-05-16T00:26:46.596Z,90.55
2023-05-16T00:27:46.574Z,90.75
2023-05-16T00:28:46.568Z,90.75
2023-05-16T00:29:46.570Z,90.45
2023-05-16T00:30:46.541Z,90.25
2023-05-16T00:31:46.559Z,90.14
2023-05-16T00:32:46.634Z,90.04
2023-05-16T00:33:46.510Z,90.14
2023-05-16T00:34:46.606Z,90.59
2023-05-16T00:35:46.491Z,90.80
2023-05-16T00:36:46.492Z,90.90
2023-05-16T00:37:46.481Z,90.80
2023-05-16T00:38:46.489Z,90.80
2023-05-16T00:39:46.468Z,90.80
2023-05-16T00:40:46.446Z,90.70
2023-05-16T00:41:46.423Z,90.70
2023-05-16T00:42:46.434Z,90.90
2023-05-16T00:43:46.424Z,91.11
2023-05-16T00:44:46.399Z,91.15
2023-05-16T00:45:46.503Z,91.46
2023-05-16T00:46:46.612Z,91.56
2023-05-16T00:47:46.390Z,91.66
2023-05-16T00:48:46.370Z,91.56
2023-05-16T00:49:46.363Z,91.46
2023-05-16T00:50:46.346Z,91.56
2023-05-16T00:51:46.330Z,91.66
2023-05-16T00:52:46.323Z,91.76
2023-05-16T00:53:46.311Z,91.96
2023-05-16T00:54:46.291Z,92.07
2023-05-16T00:55:46.278Z,92.17
2023-05-16T00:56:46.278Z,91.96
2023-05-16T00:57:46.269Z,91.66
2023-05-16T00:58:46.247Z,91.86
2023-05-16T00:59:46.233Z,91.96
2023-05-16T01:00:48.429Z,92.07
2023-05-16T01:01:46.240Z,92.17
2023-05-16T01:02:46.328Z,92.32
2023-05-16T01:03:46.493Z,92.42
2023-05-16T01:04:46.189Z,92.52
2023-05-16T01:05:46.811Z,92.62
2023-05-16T01:06:46.168Z,92.83
2023-05-16T01:07:46.179Z,92.83
2023-05-16T01:08:46.151Z,92.72
2023-05-16T01:09:46.144Z,92.62
2023-05-16T01:10:46.177Z,92.83
2023-05-16T01:11:46.122Z,92.62
2023-05-16T01:12:46.142Z,92.42
2023-05-16T01:13:46.131Z,92.58
2023-05-16T01:14:46.089Z,92.72
2023-05-16T01:15:46.095Z,92.58
2023-05-16T01:16:46.092Z,92.62
2023-05-16T01:17:46.112Z,92.93
2023-05-16T01:18:46.061Z,92.93
2023-05-16T01:19:46.030Z,92.93
2023-05-16T01:20:46.008Z,93.03
2023-05-16T01:21:46.029Z,93.24
2023-05-16T01:22:46.066Z,93.33
2023-05-16T01:23:45.984Z,93.24
2023-05-16T01:24:45.968Z,93.33
2023-05-16T01:25:45.960Z,93.44
2023-05-16T01:26:45.980Z,93.74
2023-05-16T01:27:45.941Z,93.65
2023-05-16T01:28:45.926Z,93.74
2023-05-16T01:29:45.931Z,94.15
2023-05-16T01:30:45.919Z,94.46
2023-05-16T01:31:45.962Z,94.71
2023-05-16T01:32:45.957Z,94.81
2023-05-16T01:33:45.898Z,95.12
2023-05-16T01:34:45.896Z,95.22
2023-05-16T01:35:45.883Z,95.32
2023-05-16T01:36:45.838Z,95.53
2023-05-16T01:37:45.847Z,95.63
2023-05-16T01:38:45.822Z,95.73
2023-05-16T01:39:45.812Z,95.94
2023-05-16T01:40:45.832Z,96.14
2023-05-16T01:41:45.790Z,96.25
2023-05-16T01:42:45.795Z,96.25
2023-05-16T01:43:45.768Z,96.25
2023-05-16T01:44:45.767Z,96.25
2023-05-16T01:45:45.823Z,96.04
2023-05-16T01:46:45.788Z,96.04
2023-05-16T01:47:45.748Z,96.29
2023-05-16T01:48:45.736Z,96.45
2023-05-16T01:49:45.735Z,96.45
2023-05-16T01:50:45.710Z,96.59
2023-05-16T01:51:45.701Z,96.66
2023-05-16T01:52:45.676Z,96.75
2023-05-16T01:53:45.696Z,96.75
2023-05-16T01:54:45.687Z,96.55
2023-05-16T01:55:45.667Z,96.25
2023-05-16T01:56:45.640Z,96.25
2023-05-16T01:57:45.623Z,96.34
2023-05-16T01:58:45.615Z,96.34
2023-05-16T01:59:45.617Z,96.25
2023-05-16T02:00:45.640Z,96.29
2023-05-16T02:01:45.595Z,96.55
2023-05-16T02:02:45.636Z,96.70
2023-05-16T02:03:45.642Z,96.80
2023-05-16T02:04:45.552Z,96.49
2023-05-16T02:05:45.529Z,96.59
2023-05-16T02:06:45.526Z,96.55
2023-05-16T02:07:45.524Z,96.75
2023-05-16T02:08:45.526Z,96.75
2023-05-16T02:09:45.531Z,96.86
2023-05-16T02:10:45.473Z,96.86
2023-05-16T02:11:45.475Z,96.75
2023-05-16T02:12:45.479Z,96.86
2023-05-16T02:13:45.458Z,97.06
2023-05-16T02:14:45.449Z,97.16
2023-05-16T02:15:45.426Z,97.06
2023-05-16T02:16:45.516Z,97.37
2023-05-16T02:17:45.501Z,97.57
2023-05-16T02:18:45.413Z,97.37
2023-05-16T02:19:45.396Z,97.41
2023-05-16T02:20:45.408Z,97.37
2023-05-16T02:21:45.376Z,97.41
2023-05-16T02:22:45.375Z,97.41
2023-05-16T02:23:45.337Z,97.41
2023-05-16T02:24:45.333Z,97.00
2023-05-16T02:25:45.334Z,97.00
2023-05-16T02:26:45.335Z,97.21
2023-05-16T02:27:45.333Z,97.41
2023-05-16T02:28:45.296Z,97.52
2023-05-16T02:29:45.276Z,97.52
2023-05-16T02:30:45.311Z,97.62
2023-05-16T02:31:45.268Z,97.62
2023-05-16T02:32:45.381Z,97.72
2023-05-16T02:33:45.249Z,97.82
2023-05-16T02:34:45.223Z,97.82
2023-05-16T02:35:45.208Z,97.92
2023-05-16T02:36:45.214Z,97.82
2023-05-16T02:37:45.199Z,98.03
2023-05-16T02:38:45.201Z,98.03
2023-05-16T02:39:45.180Z,97.92
2023-05-16T02:40:45.188Z,97.92
2023-05-16T02:41:45.188Z,98.03
2023-05-16T02:42:45.154Z,98.03
2023-05-16T02:43:46.868Z,97.92
2023-05-16T02:44:45.124Z,97.92
2023-05-16T02:45:45.132Z,97.92
2023-05-16T02:46:45.169Z,97.82
2023-05-16T02:47:45.102Z,97.72
2023-05-16T02:48:45.071Z,97.92
2023-05-16T02:49:45.066Z,97.92
2023-05-16T02:50:45.072Z,97.92
2023-05-16T02:51:45.062Z,98.03
2023-05-16T02:52:45.032Z,98.07
2023-05-16T02:53:45.059Z,98.07
2023-05-16T02:54:46.906Z,97.87
2023-05-16T02:55:46.024Z,97.87
2023-05-16T02:56:44.987Z,98.07
2023-05-16T02:57:45.008Z,98.28
2023-05-16T02:58:45.011Z,98.49
2023-05-16T02:59:44.986Z,98.58
2023-05-16T03:00:44.966Z,98.69
2023-05-16T03:01:45.014Z,98.79
2023-05-16T03:02:45.023Z,98.99
2023-05-16T03:03:45.007Z,99.25
2023-05-16T03:04:44.951Z,99.15
2023-05-16T03:05:44.896Z,99.25
2023-05-16T03:06:44.890Z,99.35
2023-05-16T03:07:44.881Z,99.25
2023-05-16T03:08:44.876Z,99.15
2023-05-16T03:09:44.872Z,99.25
2023-05-16T03:10:44.849Z,99.55
2023-05-16T03:11:44.845Z,99.66
2023-05-16T03:12:44.829Z,99.55
2023-05-16T03:13:44.828Z,99.66
2023-05-16T03:14:44.821Z,99.45
2023-05-16T03:15:44.858Z,99.45
2023-05-16T03:16:44.882Z,99.45
2023-05-16T03:17:44.872Z,99.45
2023-05-16T03:18:44.787Z,99.45
2023-05-16T03:19:44.752Z,99.35
2023-05-16T03:20:44.741Z,99.25
2023-05-16T03:21:44.739Z,99.25
2023-05-16T03:22:44.724Z,99.25
2023-05-16T03:23:44.704Z,99.25
2023-05-16T03:24:44.872Z,99.25
2023-05-16T03:25:44.716Z,99.35
2023-05-16T03:26:44.704Z,99.45
2023-05-16T03:27:44.678Z,99.25
2023-05-16T03:28:44.668Z,99.25
2023-05-16T03:29:44.643Z,99.25
2023-05-16T03:30:44.689Z,99.35
2023-05-16T03:31:44.676Z,99.25
2023-05-16T03:32:44.664Z,99.15
2023-05-16T03:33:44.608Z,99.25
2023-05-16T03:34:44.610Z,99.25
2023-05-16T03:35:44.603Z,99.35
2023-05-16T03:36:44.574Z,99.35
2023-05-16T03:37:44.596Z,99.35
2023-05-16T03:38:44.563Z,99.45
2023-05-16T03:39:44.559Z,99.45
2023-05-16T03:40:44.534Z,99.35
2023-05-16T03:41:44.529Z,99.25
2023-05-16T03:42:44.524Z,99.15
2023-05-16T03:43:44.514Z,99.15
2023-05-16T03:44:44.501Z,99.15
2023-05-16T03:45:44.505Z,99.10
2023-05-16T03:46:44.472Z,99.10
2023-05-16T03:47:44.489Z,99.10
2023-05-16T03:48:44.458Z,99.10
2023-05-16T03:49:44.457Z,99.10
2023-05-16T03:50:44.477Z,98.99
2023-05-16T03:51:44.425Z,98.90
2023-05-16T03:52:44.435Z,98.49
2023-05-16T03:53:44.420Z,98.18
2023-05-16T03:54:44.404Z,98.07
2023-05-16T03:55:45.478Z,98.07
2023-05-16T03:56:44.373Z,98.07
2023-05-16T03:57:44.352Z,98.18
2023-05-16T03:58:44.380Z,98.18
2023-05-16T03:59:44.322Z,98.28
2023-05-16T04:00:44.321Z,98.49
2023-05-16T04:01:44.375Z,98.49
2023-05-16T04:02:44.550Z,98.28
2023-05-16T04:03:44.368Z,98.22
2023-05-16T04:04:44.282Z,97.97
2023-05-16T04:05:44.367Z,97.81
2023-05-16T04:06:44.245Z,97.50
2023-05-16T04:07:44.260Z,97.40
2023-05-16T04:08:44.245Z,97.50
2023-05-16T04:09:44.247Z,97.61
2023-05-16T04:10:44.216Z,97.40
2023-05-16T04:11:44.201Z,97.09
2023-05-16T04:12:44.225Z,96.99
2023-05-16T04:13:44.263Z,97.30
2023-05-16T04:14:44.166Z,97.61
2023-05-16T04:15:44.172Z,97.40
2023-05-16T04:16:44.202Z,97.40
2023-05-16T04:17:44.209Z,97.61
2023-05-16T04:18:44.152Z,97.91
2023-05-16T04:19:44.141Z,97.91
2023-05-16T04:20:44.110Z,98.02
2023-05-16T04:21:44.104Z,98.22
2023-05-16T04:22:44.096Z,98.22
2023-05-16T04:23:44.073Z,98.02
2023-05-16T04:24:44.073Z,97.91
2023-05-16T04:25:44.065Z,97.81
2023-05-16T04:26:44.039Z,97.71
2023-05-16T04:27:44.047Z,97.40
2023-05-16T04:28:44.026Z,97.40
2023-05-16T04:29:44.026Z,97.50
2023-05-16T04:30:44.007Z,97.40
2023-05-16T04:31:44.044Z,97.20
2023-05-16T04:32:44.013Z,97.20
2023-05-16T04:33:43.964Z,97.40
2023-05-16T04:34:43.968Z,97.50
2023-05-16T04:35:43.969Z,97.24
2023-05-16T04:36:43.967Z,97.14
2023-05-16T04:37:43.921Z,97.24
2023-05-16T04:38:43.918Z,97.34
2023-05-16T04:39:43.904Z,97.24
2023-05-16T04:40:43.959Z,97.55
2023-05-16T04:41:43.918Z,97.86
2023-05-16T04:42:43.867Z,97.86
2023-05-16T04:43:43.870Z,98.07
2023-05-16T04:44:43.880Z,98.16
2023-05-16T04:45:43.870Z,97.65
2023-05-16T04:46:43.892Z,97.34
2023-05-16T04:47:43.858Z,97.45
2023-05-16T04:48:43.806Z,97.24
2023-05-16T04:49:43.804Z,97.08
2023-05-16T04:50:43.808Z,97.19
2023-05-16T04:51:43.803Z,96.78
2023-05-16T04:52:43.767Z,96.88
2023-05-16T04:53:43.764Z,96.78
2023-05-16T04:54:43.756Z,97.08
2023-05-16T04:55:43.753Z,96.98
2023-05-16T04:56:43.753Z,97.19
2023-05-16T04:57:43.748Z,97.39
2023-05-16T04:58:43.715Z,97.29
2023-05-16T04:59:43.720Z,97.39
2023-05-16T05:00:43.683Z,97.49
2023-05-16T05:01:43.707Z,97.60
2023-05-16T05:02:43.713Z,97.80
2023-05-16T05:03:44.665Z,97.80
2023-05-16T05:04:44.106Z,97.65
2023-05-16T05:05:43.659Z,97.39
2023-05-16T05:06:44.435Z,97.19
2023-05-16T05:07:43.620Z,97.08
2023-05-16T05:08:43.605Z,97.34
2023-05-16T05:09:43.657Z,97.55
2023-05-16T05:10:43.583Z,97.14
2023-05-16T05:11:43.564Z,97.08
2023-05-16T05:12:43.551Z,97.08
2023-05-16T05:13:43.551Z,97.08
2023-05-16T05:14:43.550Z,97.08
2023-05-16T05:15:43.523Z,97.24
2023-05-16T05:16:43.509Z,97.45
2023-05-16T05:17:43.613Z,97.75
2023-05-16T05:18:43.634Z,97.96
2023-05-16T05:19:43.503Z,98.07
2023-05-16T05:20:43.464Z,98.27
2023-05-16T05:21:43.469Z,97.65
2023-05-16T05:22:43.456Z,97.34
2023-05-16T05:23:43.481Z,97.55
2023-05-16T05:26:00.610Z,97.24
2023-05-16T05:27:00.626Z,97.14
2023-05-16T05:28:00.719Z,96.94
2023-05-16T05:29:05.509Z,96.94
2023-05-16T05:30:01.567Z,95.54
2023-05-16T05:31:00.559Z,95.24
2023-05-16T05:32:00.628Z,95.86
2023-05-16T05:33:00.651Z,96.10
2023-05-16T05:34:00.519Z,95.69
2023-05-16T05:35:00.600Z,95.79
2023-05-16T05:36:02.524Z,94.98
2023-05-16T05:37:00.493Z,95.07
2023-05-16T05:38:00.484Z,95.69
2023-05-16T05:39:00.548Z,96.10
2023-05-16T05:40:00.469Z,95.49
2023-05-16T05:41:00.435Z,95.49
2023-05-16T05:42:00.439Z,95.59
2023-05-16T05:43:00.438Z,95.79
2023-05-16T05:44:00.410Z,95.49
2023-05-16T05:45:00.395Z,95.18
2023-05-16T05:46:00.438Z,95.28
2023-05-16T05:47:00.395Z,95.39
2023-05-16T05:48:00.367Z,95.18
2023-05-16T05:49:00.350Z,94.26
2023-05-16T05:50:00.350Z,93.74
2023-05-16T05:51:00.327Z,94.67
2023-05-16T05:52:00.347Z,94.87
2023-05-16T05:53:00.314Z,94.92
2023-05-16T05:54:00.300Z,95.23
2023-05-16T05:55:00.309Z,95.23
2023-05-16T05:56:00.296Z,95.64
2023-05-16T05:57:00.282Z,95.74
2023-05-16T05:58:00.263Z,95.74
2023-05-16T05:59:00.256Z,94.51
2023-05-16T06:00:00.241Z,94.30
2023-05-16T06:01:00.304Z,94.20
2023-05-16T06:02:00.279Z,95.02
2023-05-16T06:03:00.247Z,95.23
2023-05-16T06:04:02.177Z,95.53
2023-05-16T06:05:00.255Z,95.43
2023-05-16T06:06:00.239Z,95.02
2023-05-16T06:07:00.161Z,95.43
2023-05-16T06:08:00.153Z,95.94
2023-05-16T06:09:00.149Z,95.23
2023-05-16T06:10:00.229Z,94.71
2023-05-16T06:11:00.176Z,94.51
2023-05-16T06:12:00.160Z,94.20
2023-05-16T06:13:00.121Z,94.20
2023-05-16T06:14:00.141Z,94.61
2023-05-16T06:15:00.107Z,95.02
2023-05-16T06:16:00.123Z,95.23
2023-05-16T06:17:00.075Z,94.51
2023-05-16T06:18:00.114Z,94.51
2023-05-16T06:19:00.099Z,94.85
2023-05-16T06:20:00.068Z,94.96
2023-05-16T06:21:00.042Z,95.06
2023-05-16T06:22:00.005Z,94.55
2023-05-16T06:23:00.000Z,94.45
2023-05-16T06:23:59.982Z,94.65
2023-05-16T06:24:59.988Z,94.85
2023-05-16T06:25:59.976Z,95.57
2023-05-16T06:27:00.049Z,95.17
2023-05-16T06:27:59.956Z,95.37
2023-05-16T06:28:59.928Z,95.37
2023-05-16T06:29:59.932Z,94.24
2023-05-16T06:30:59.926Z,93.83
2023-05-16T06:32:00.047Z,94.24
2023-05-16T06:32:59.916Z,94.55
2023-05-16T06:33:59.879Z,94.34
2023-05-16T06:34:59.882Z,94.24
2023-05-16T06:35:59.864Z,94.85
2023-05-16T06:36:59.958Z,94.45
2023-05-16T06:37:59.844Z,94.04
2023-05-16T06:38:59.828Z,94.24
2023-05-16T06:39:59.828Z,94.76
2023-05-16T06:40:59.803Z,94.76
2023-05-16T06:41:59.819Z,93.52
2023-05-16T06:42:59.813Z,93.73
2023-05-16T06:43:59.814Z,94.14
2023-05-16T06:44:59.801Z,93.63
2023-05-16T06:45:59.815Z,93.73
2023-05-16T06:46:59.811Z,93.83
2023-05-16T06:47:59.808Z,93.73
2023-05-16T06:48:59.755Z,94.04
2023-05-16T06:49:59.758Z,93.93
2023-05-16T06:50:59.728Z,94.04
2023-05-16T06:51:59.767Z,94.34
2023-05-16T06:52:59.712Z,94.85
2023-05-16T06:54:00.317Z,95.17
2023-05-16T06:54:59.682Z,95.37
2023-05-16T06:55:59.674Z,95.37
2023-05-16T06:56:59.660Z,94.55
2023-05-16T06:57:59.697Z,94.24
2023-05-16T06:58:59.673Z,94.24
2023-05-16T06:59:59.647Z,93.42
2023-05-16T07:00:59.677Z,93.73
2023-05-16T07:01:59.641Z,94.45
2023-05-16T07:02:59.685Z,94.40
2023-05-16T07:03:59.656Z,93.89
2023-05-16T07:04:59.600Z,93.07
2023-05-16T07:05:59.606Z,92.55
2023-05-16T07:06:59.634Z,92.97
2023-05-16T07:07:59.589Z,93.48
2023-05-16T07:08:59.549Z,92.40
2023-05-16T07:09:59.526Z,92.55
2023-05-16T07:10:59.518Z,92.86
2023-05-16T07:11:59.532Z,92.86
2023-05-16T07:12:59.506Z,93.38
2023-05-16T07:13:59.490Z,92.86
2023-05-16T07:14:59.527Z,91.94
2023-05-16T07:15:59.527Z,90.71
2023-05-16T07:16:59.637Z,91.12
2023-05-16T07:18:00.153Z,90.40
2023-05-16T07:18:59.482Z,90.30
2023-05-16T07:19:59.416Z,91.22
2023-05-16T07:20:59.615Z,91.12
2023-05-16T07:21:59.425Z,89.62
2023-05-16T07:22:59.447Z,89.52
2023-05-16T07:23:59.375Z,90.61
2023-05-16T07:24:59.379Z,91.74
2023-05-16T07:25:59.364Z,90.71
2023-05-16T07:26:59.356Z,90.61
2023-05-16T07:27:59.405Z,90.55
2023-05-16T07:28:59.317Z,90.61
2023-05-16T07:29:59.370Z,91.33
2023-05-16T07:30:59.613Z,90.81
2023-05-16T07:31:59.636Z,90.55
2023-05-16T07:33:00.067Z,91.02
2023-05-16T07:33:59.279Z,91.74
2023-05-16T07:34:59.264Z,92.25
2023-05-16T07:36:12.171Z,92.25
2023-05-16T07:37:00.274Z,91.63
2023-05-16T07:37:59.266Z,91.42
2023-05-16T07:38:59.277Z,90.34
2023-05-16T07:39:59.204Z,90.34
2023-05-16T07:40:59.230Z,90.55
2023-05-16T07:41:59.179Z,90.75
2023-05-16T07:42:59.199Z,91.16
2023-05-16T07:43:59.163Z,91.22
2023-05-16T07:44:59.159Z,90.44
2023-05-16T07:45:59.275Z,90.71
2023-05-16T07:46:59.149Z,90.71
2023-05-16T07:47:59.266Z,89.11
2023-05-16T07:48:59.104Z,89.93
2023-05-16T07:49:59.102Z,90.44
2023-05-16T07:50:59.128Z,90.44
2023-05-16T07:51:59.126Z,90.34
2023-05-16T07:52:59.126Z,90.34
2023-05-16T07:53:59.044Z,89.93
2023-05-16T07:54:59.081Z,90.34
2023-05-16T07:55:59.803Z,90.34
2023-05-16T07:56:59.025Z,90.55
2023-05-16T07:57:59.040Z,91.47
2023-05-16T07:59:00.569Z,90.85
2023-05-16T07:59:59.081Z,90.03
2023-05-16T08:00:59.013Z,89.83
2023-05-16T08:01:59.003Z,88.90
2023-05-16T08:02:59.148Z,88.59
2023-05-16T08:03:59.014Z,88.80
2023-05-16T08:04:59.049Z,88.84
2023-05-16T08:05:59.000Z,89.04
2023-05-16T08:06:58.924Z,89.11
2023-05-16T08:07:58.901Z,88.49
2023-05-16T08:08:58.908Z,89.72
2023-05-16T08:09:58.924Z,90.34
2023-05-16T08:10:58.882Z,90.03
2023-05-16T08:11:58.870Z,89.99
2023-05-16T08:12:58.873Z,89.48
2023-05-16T08:13:58.856Z,88.56
2023-05-16T08:14:58.974Z,88.04
2023-05-16T08:15:58.908Z,87.63
2023-05-16T08:16:59.542Z,87.94
2023-05-16T08:17:59.586Z,87.94
2023-05-16T08:18:58.891Z,85.78
2023-05-16T08:19:58.786Z,86.09
2023-05-16T08:20:58.808Z,87.32
2023-05-16T08:21:58.859Z,87.53
2023-05-16T08:23:00.054Z,85.78
2023-05-16T08:23:58.734Z,87.02
2023-05-16T08:24:58.754Z,86.50
2023-05-16T08:25:59.652Z,86.19
2023-05-16T08:26:58.774Z,85.54
2023-05-16T08:27:58.713Z,85.06
2023-05-16T08:28:58.896Z,84.55
2023-05-16T08:29:58.672Z,84.45
2023-05-16T08:30:58.724Z,84.76
2023-05-16T08:31:58.723Z,83.42
2023-05-16T08:32:58.791Z,82.40
2023-05-16T08:33:58.626Z,83.12
2023-05-16T08:34:58.761Z,84.04
2023-05-16T08:35:58.658Z,84.96
2023-05-16T08:36:58.691Z,83.53
2023-05-16T08:37:58.659Z,83.42
2023-05-16T08:38:58.584Z,85.38
2023-05-16T08:39:58.607Z,85.58
2023-05-16T08:40:58.603Z,84.92
2023-05-16T08:41:58.803Z,83.28
2023-05-16T08:42:58.590Z,80.45
2023-05-16T08:43:59.136Z,81.37
2023-05-16T08:44:58.504Z,82.29
2023-05-16T08:45:58.573Z,79.83
2023-05-16T08:46:58.638Z,82.29
2023-05-16T08:47:58.540Z,82.60
2023-05-16T08:48:58.462Z,82.15
2023-05-16T08:49:58.486Z,81.02
2023-05-16T08:50:58.495Z,81.74
2023-05-16T08:51:58.530Z,79.90
2023-05-16T08:52:58.437Z,80.68
2023-05-16T08:53:58.506Z,80.99
2023-05-16T08:55:09.364Z,80.13
2023-05-16T08:55:59.510Z,79.41
2023-05-16T08:56:59.056Z,80.23
2023-05-16T08:57:58.394Z,78.66
2023-05-16T08:58:59.231Z,77.53
2023-05-16T08:59:59.313Z,77.73
2023-05-16T09:01:01.195Z,78.93
2023-05-16T09:01:59.155Z,78.21
2023-05-16T09:02:58.558Z,79.75
2023-05-16T09:03:58.365Z,79.61
2023-05-16T09:04:59.060Z,78.08
2023-05-16T09:05:58.304Z,76.43
2023-05-16T09:06:58.334Z,78.28
2023-05-16T09:07:58.291Z,77.76
2023-05-16T09:08:58.319Z,76.84
2023-05-16T09:09:58.600Z,76.43
2023-05-16T09:10:58.308Z,77.36
2023-05-16T09:11:58.275Z,77.36
2023-05-16T09:12:59.343Z,77.26
2023-05-16T09:13:59.139Z,76.64
2023-05-16T09:14:59.066Z,76.23
2023-05-16T09:15:58.211Z,76.03
2023-05-16T09:16:58.266Z,74.08
2023-05-16T09:17:58.288Z,74.49
2023-05-16T09:18:59.173Z,75.10
2023-05-16T09:19:58.180Z,75.21
2023-05-16T09:20:58.144Z,75.10
2023-05-16T09:21:58.146Z,72.65
2023-05-16T09:22:58.174Z,73.06
2023-05-16T09:23:58.179Z,72.96
2023-05-16T09:24:58.150Z,74.08
2023-05-16T09:25:58.165Z,73.36
2023-05-16T09:26:58.110Z,73.98
2023-05-16T09:27:58.068Z,72.45
2023-05-16T09:28:58.078Z,73.88
2023-05-16T09:29:58.118Z,70.71
2023-05-16T09:30:58.048Z,71.08
2023-05-16T09:31:58.029Z,73.74
2023-05-16T09:32:58.097Z,71.70
2023-05-16T09:33:58.008Z,72.48
2023-05-16T09:34:58.003Z,69.72
2023-05-16T09:35:58.008Z,67.88
2023-05-16T09:36:58.001Z,69.11
2023-05-16T09:37:57.989Z,69.31
2023-05-16T09:38:58.022Z,70.00
2023-05-16T09:39:58.015Z,66.31
2023-05-16T09:40:57.976Z,67.24
2023-05-16T09:41:58.005Z,67.34
2023-05-16T09:42:57.956Z,68.94
2023-05-16T09:43:57.942Z,69.96
2023-05-16T09:44:57.889Z,68.43
2023-05-16T09:45:57.929Z,70.27
2023-05-16T09:46:58.143Z,68.33
2023-05-16T09:47:57.955Z,68.09
2023-05-16T09:48:57.896Z,66.90
2023-05-16T09:49:57.825Z,65.47
2023-05-16T09:50:57.832Z,66.80
2023-05-16T09:51:57.812Z,66.49
2023-05-16T09:52:57.829Z,66.42
2023-05-16T09:53:57.850Z,66.39
2023-05-16T09:54:57.840Z,68.05
2023-05-16T09:55:57.761Z,67.13
2023-05-16T09:56:57.754Z,65.50
2023-05-16T09:57:57.881Z,66.72
2023-05-16T09:58:57.752Z,64.30
2023-05-16T09:59:57.760Z,66.55
2023-05-16T10:00:57.722Z,65.63
2023-05-16T10:01:57.797Z,64.30
2023-05-16T10:02:57.826Z,64.81
2023-05-16T10:03:57.749Z,66.04
2023-05-16T10:04:57.708Z,65.33
2023-05-16T10:05:57.662Z,65.60
2023-05-16T10:06:57.674Z,65.67
2023-05-16T10:07:57.655Z,65.77
2023-05-16T10:08:59.719Z,64.62
2023-05-16T10:09:57.636Z,64.83
2023-05-16T10:10:57.725Z,64.83
2023-05-16T10:11:57.620Z,62.35
2023-05-16T10:12:57.655Z,65.17
2023-05-16T10:13:57.574Z,62.85
2023-05-16T10:14:57.629Z,63.98
2023-05-16T10:15:57.624Z,63.78
2023-05-16T10:16:57.631Z,62.88
2023-05-16T10:17:57.554Z,64.31
2023-05-16T10:18:57.672Z,65.95
2023-05-16T10:19:57.515Z,64.01
2023-05-16T10:20:57.533Z,64.93
2023-05-16T10:21:57.587Z,65.64
2023-05-16T10:22:57.506Z,64.22
2023-05-16T10:23:57.480Z,63.73
2023-05-16T10:24:57.534Z,65.77
2023-05-16T10:25:57.505Z,65.06
2023-05-16T10:26:57.477Z,64.86
2023-05-16T10:27:57.436Z,65.16
2023-05-16T10:28:57.452Z,66.05
2023-05-16T10:29:57.400Z,63.09
2023-05-16T10:30:57.461Z,64.18
2023-05-16T10:31:57.434Z,64.36
2023-05-16T10:32:57.408Z,66.36
2023-05-16T10:33:57.359Z,65.75
2023-05-16T10:34:57.391Z,64.70
2023-05-16T10:35:57.354Z,62.43
2023-05-16T10:36:57.393Z,63.15
2023-05-16T10:37:57.396Z,60.68
2023-05-16T10:38:57.309Z,61.08
2023-05-16T10:39:57.298Z,59.63
2023-05-16T10:40:57.326Z,58.61
2023-05-16T10:41:57.320Z,59.22
2023-05-16T10:42:57.331Z,58.81
2023-05-16T10:43:57.243Z,56.81
2023-05-16T10:45:05.019Z,58.26
2023-05-16T10:45:58.341Z,58.28
2023-05-16T10:46:57.272Z,59.84
2023-05-16T10:47:57.296Z,60.66
2023-05-16T10:48:58.580Z,61.16
2023-05-16T10:49:58.228Z,60.35
2023-05-16T10:50:57.184Z,59.05
2023-05-16T10:51:57.174Z,60.76
2023-05-16T10:52:57.218Z,58.31
2023-05-16T10:53:57.183Z,59.33
2023-05-16T10:54:57.229Z,57.87
2023-05-16T10:55:57.135Z,57.17
2023-05-16T10:56:57.141Z,57.06
2023-05-16T10:57:57.162Z,57.17
2023-05-16T10:58:57.166Z,57.47
2023-05-16T10:59:58.523Z,57.57
2023-05-16T11:00:57.115Z,57.87
2023-05-16T11:01:57.552Z,57.57
2023-05-16T11:02:57.214Z,57.98
2023-05-16T11:03:57.277Z,56.96
2023-05-16T11:04:57.050Z,57.87
2023-05-16T11:05:57.022Z,56.55
2023-05-16T11:06:57.075Z,56.52
2023-05-16T11:07:57.009Z,55.61
2023-05-16T11:08:57.099Z,55.89
2023-05-16T11:09:57.155Z,55.18
2023-05-16T11:10:57.030Z,56.40
2023-05-16T11:11:57.010Z,57.31
2023-05-16T11:12:57.593Z,56.81
2023-05-16T11:13:56.948Z,55.41
2023-05-16T11:14:56.967Z,53.70
2023-05-16T11:15:56.937Z,56.04
2023-05-16T11:16:56.970Z,55.63
2023-05-16T11:17:56.950Z,56.45
2023-05-16T11:18:56.920Z,56.65
2023-05-16T11:19:56.977Z,56.93
2023-05-16T11:20:56.966Z,55.20
2023-05-16T11:21:56.876Z,58.15
2023-05-16T11:22:56.891Z,57.11
2023-05-16T11:23:56.888Z,54.87
2023-05-16T11:24:56.872Z,54.97
2023-05-16T11:25:56.909Z,55.05
2023-05-16T11:26:56.797Z,53.93
2023-05-16T11:27:56.827Z,53.63
2023-05-16T11:28:56.928Z,56.65
2023-05-16T11:29:56.768Z,55.30
2023-05-16T11:30:56.860Z,53.88
2023-05-16T11:31:57.065Z,55.58
2023-05-16T11:32:56.806Z,54.49
2023-05-16T11:33:57.672Z,55.10
2023-05-16T11:34:56.729Z,55.02
2023-05-16T11:36:11.142Z,53.80
2023-05-16T11:36:57.976Z,54.85
2023-05-16T11:37:56.679Z,56.37
2023-05-16T11:38:56.890Z,56.09
2023-05-16T11:39:56.758Z,55.68
2023-05-16T11:40:57.199Z,56.63
2023-05-16T11:41:56.680Z,56.70
2023-05-16T11:42:56.678Z,53.96
2023-05-16T11:43:56.634Z,52.40
2023-05-16T11:44:56.912Z,52.78
2023-05-16T11:45:56.610Z,52.86
2023-05-16T11:46:56.782Z,53.37
2023-05-16T11:47:56.598Z,53.17
2023-05-16T11:48:56.571Z,52.15
2023-05-16T11:49:56.573Z,50.62
2023-05-16T11:50:56.576Z,51.67
2023-05-16T11:51:56.555Z,51.08
2023-05-16T11:52:56.703Z,52.89
2023-05-16T11:53:56.505Z,53.70
2023-05-16T11:54:56.500Z,53.37
2023-05-16T11:55:56.927Z,53.98
2023-05-16T11:56:56.501Z,54.46
2023-05-16T11:57:56.483Z,54.03
2023-05-16T11:58:56.458Z,52.89
2023-05-16T11:59:56.495Z,53.39
2023-05-16T12:00:56.769Z,54.21
2023-05-16T12:01:56.498Z,51.46
2023-05-16T12:02:56.545Z,51.26
2023-05-16T12:03:56.531Z,51.14
2023-05-16T12:04:56.459Z,50.73
2023-05-16T12:05:56.416Z,49.84
2023-05-16T12:06:56.394Z,49.76
2023-05-16T12:07:56.384Z,51.16
2023-05-16T12:08:56.352Z,50.37
2023-05-16T12:09:56.332Z,52.40
2023-05-16T12:10:56.406Z,52.71
2023-05-16T12:11:56.355Z,53.52
2023-05-16T12:12:56.401Z,51.16
2023-05-16T12:13:56.311Z,51.37
2023-05-16T12:14:56.336Z,51.75
2023-05-16T12:15:56.311Z,51.34
2023-05-16T12:16:56.373Z,52.97
2023-05-16T12:17:56.357Z,52.33
2023-05-16T12:18:56.311Z,51.62
2023-05-16T12:19:56.263Z,48.78
2023-05-16T12:20:56.242Z,47.77
2023-05-16T12:21:56.239Z,47.08
2023-05-16T12:22:56.211Z,50.17
2023-05-16T12:23:56.230Z,51.09
2023-05-16T12:24:56.232Z,51.98
2023-05-16T12:25:56.188Z,51.85
2023-05-16T12:26:56.172Z,49.41
2023-05-16T12:27:56.160Z,49.92
2023-05-16T12:28:56.178Z,49.82
2023-05-16T12:29:56.177Z,50.63
2023-05-16T12:30:56.158Z,50.23
2023-05-16T12:31:56.231Z,48.32
2023-05-16T12:32:56.220Z,48.93
2023-05-16T12:33:56.212Z,49.26
2023-05-16T12:34:56.195Z,50.09
2023-05-16T12:35:56.080Z,50.81
2023-05-16T12:36:56.103Z,52.03
2023-05-16T12:37:56.077Z,50.90
2023-05-16T12:38:56.064Z,49.30
2023-05-16T12:39:56.031Z,49.30
2023-05-16T12:40:56.018Z,50.34
2023-05-16T12:41:56.001Z,52.08
2023-05-16T12:42:56.009Z,52.25
2023-05-16T12:43:56.631Z,51.92
2023-05-16T12:44:56.647Z,50.70
2023-05-16T12:45:56.141Z,51.06
2023-05-16T12:46:56.245Z,50.33
2023-05-16T12:47:56.067Z,48.91
2023-05-16T12:48:55.959Z,48.48
2023-05-16T12:49:55.938Z,48.99
2023-05-16T12:50:55.956Z,49.59
2023-05-16T12:51:55.916Z,48.86
2023-05-16T12:52:55.932Z,48.46
2023-05-16T12:54:08.848Z,48.63